sensor_id;sensor_type;location;lat;lon;timestamp;temperature;humidity
65582;DHT22;52231;40.090;18.348;2022-08-19T00:02:23;24.90;71.10
65582;DHT22;52231;40.090;18.348;2022-08-19T00:04:51;24.80;71.80
65582;DHT22;52231;40.090;18.348;2022-08-19T00:07:42;24.80;71.90
65582;DHT22;52231;40.090;18.348;2022-08-19T00:10:14;24.80;72.40
65582;DHT22;52231;40.090;18.348;2022-08-19T00:12:43;24.80;72.40
65582;DHT22;52231;40.090;18.348;2022-08-19T00:15:18;24.80;72.50
65582;DHT22;52231;40.090;18.348;2022-08-19T00:17:47;24.80;72.60
65582;DHT22;52231;40.090;18.348;2022-08-19T00:20:18;24.70;72.80
65582;DHT22;52231;40.090;18.348;2022-08-19T00:22:47;24.60;73.00
65582;DHT22;52231;40.090;18.348;2022-08-19T00:25:16;24.60;73.30
65582;DHT22;52231;40.090;18.348;2022-08-19T00:27:47;24.60;73.70
65582;DHT22;52231;40.090;18.348;2022-08-19T00:30:15;24.50;74.00
65582;DHT22;52231;40.090;18.348;2022-08-19T00:32:43;24.50;74.30
65582;DHT22;52231;40.090;18.348;2022-08-19T00:35:12;24.50;74.50
65582;DHT22;52231;40.090;18.348;2022-08-19T00:37:40;24.50;74.50
65582;DHT22;52231;40.090;18.348;2022-08-19T00:40:12;24.50;74.30
65582;DHT22;52231;40.090;18.348;2022-08-19T00:42:42;24.60;74.20
65582;DHT22;52231;40.090;18.348;2022-08-19T00:45:18;24.60;74.10
65582;DHT22;52231;40.090;18.348;2022-08-19T00:47:47;24.50;73.90
65582;DHT22;52231;40.090;18.348;2022-08-19T00:50:18;24.40;74.20
65582;DHT22;52231;40.090;18.348;2022-08-19T00:52:50;24.40;74.30
65582;DHT22;52231;40.090;18.348;2022-08-19T00:55:23;24.40;74.30
65582;DHT22;52231;40.090;18.348;2022-08-19T00:57:55;24.40;74.50
65582;DHT22;52231;40.090;18.348;2022-08-19T01:00:27;24.40;74.60
65582;DHT22;52231;40.090;18.348;2022-08-19T01:02:56;24.40;74.50
65582;DHT22;52231;40.090;18.348;2022-08-19T01:05:27;24.30;74.40
65582;DHT22;52231;40.090;18.348;2022-08-19T01:07:58;24.30;74.50
65582;DHT22;52231;40.090;18.348;2022-08-19T01:10:30;24.30;74.70
65582;DHT22;52231;40.090;18.348;2022-08-19T01:13:02;24.30;74.80
65582;DHT22;52231;40.090;18.348;2022-08-19T01:15:38;24.30;74.70
65582;DHT22;52231;40.090;18.348;2022-08-19T01:18:10;24.30;74.70
65582;DHT22;52231;40.090;18.348;2022-08-19T01:20:41;24.30;75.10
65582;DHT22;52231;40.090;18.348;2022-08-19T01:23:10;24.30;75.30
65582;DHT22;52231;40.090;18.348;2022-08-19T01:25:48;24.30;75.40
65582;DHT22;52231;40.090;18.348;2022-08-19T01:28:22;24.30;75.30
65582;DHT22;52231;40.090;18.348;2022-08-19T01:30:52;24.20;75.10
65582;DHT22;52231;40.090;18.348;2022-08-19T01:33:40;24.30;74.70
65582;DHT22;52231;40.090;18.348;2022-08-19T01:36:15;24.30;73.90
65582;DHT22;52231;40.090;18.348;2022-08-19T01:38:43;24.30;73.80
65582;DHT22;52231;40.090;18.348;2022-08-19T01:41:14;24.30;74.20
65582;DHT22;52231;40.090;18.348;2022-08-19T01:43:42;24.30;74.20
65582;DHT22;52231;40.090;18.348;2022-08-19T01:46:11;24.30;74.30
65582;DHT22;52231;40.090;18.348;2022-08-19T01:48:41;24.30;74.70
65582;DHT22;52231;40.090;18.348;2022-08-19T01:51:11;24.20;74.80
65582;DHT22;52231;40.090;18.348;2022-08-19T01:53:39;24.20;74.90
65582;DHT22;52231;40.090;18.348;2022-08-19T01:56:09;24.10;75.00
65582;DHT22;52231;40.090;18.348;2022-08-19T01:58:43;24.10;74.80
65582;DHT22;52231;40.090;18.348;2022-08-19T02:01:14;24.10;74.50
65582;DHT22;52231;40.090;18.348;2022-08-19T02:03:42;24.10;74.50
65582;DHT22;52231;40.090;18.348;2022-08-19T02:06:10;24.10;74.90
65582;DHT22;52231;40.090;18.348;2022-08-19T02:08:39;24.20;75.20
65582;DHT22;52231;40.090;18.348;2022-08-19T02:11:08;24.10;75.00
65582;DHT22;52231;40.090;18.348;2022-08-19T02:13:36;24.10;75.10
65582;DHT22;52231;40.090;18.348;2022-08-19T02:16:05;24.10;75.30
65582;DHT22;52231;40.090;18.348;2022-08-19T02:18:34;24.00;75.40
65582;DHT22;52231;40.090;18.348;2022-08-19T02:21:02;24.10;75.60
65582;DHT22;52231;40.090;18.348;2022-08-19T02:23:31;24.10;75.60
65582;DHT22;52231;40.090;18.348;2022-08-19T02:25:59;24.00;75.80
65582;DHT22;52231;40.090;18.348;2022-08-19T02:28:28;23.90;76.20
65582;DHT22;52231;40.090;18.348;2022-08-19T02:30:57;23.90;76.40
65582;DHT22;52231;40.090;18.348;2022-08-19T02:33:31;23.80;76.60
65582;DHT22;52231;40.090;18.348;2022-08-19T02:36:08;23.80;77.00
65582;DHT22;52231;40.090;18.348;2022-08-19T02:38:51;23.80;77.20
65582;DHT22;52231;40.090;18.348;2022-08-19T02:41:22;23.80;77.40
65582;DHT22;52231;40.090;18.348;2022-08-19T02:43:51;23.70;77.40
65582;DHT22;52231;40.090;18.348;2022-08-19T02:46:22;23.70;77.20
65582;DHT22;52231;40.090;18.348;2022-08-19T02:48:52;23.70;77.00
65582;DHT22;52231;40.090;18.348;2022-08-19T02:51:27;23.70;76.80
65582;DHT22;52231;40.090;18.348;2022-08-19T02:53:56;23.70;76.90
65582;DHT22;52231;40.090;18.348;2022-08-19T02:56:25;23.70;76.80
65582;DHT22;52231;40.090;18.348;2022-08-19T02:58:55;23.80;77.00
65582;DHT22;52231;40.090;18.348;2022-08-19T03:01:30;23.70;77.00
65582;DHT22;52231;40.090;18.348;2022-08-19T03:04:02;23.70;77.20
65582;DHT22;52231;40.090;18.348;2022-08-19T03:06:31;23.60;77.20
65582;DHT22;52231;40.090;18.348;2022-08-19T03:09:00;23.60;77.20
65582;DHT22;52231;40.090;18.348;2022-08-19T03:11:31;23.50;77.30
65582;DHT22;52231;40.090;18.348;2022-08-19T03:14:18;23.60;77.30
65582;DHT22;52231;40.090;18.348;2022-08-19T03:16:50;23.60;77.40
65582;DHT22;52231;40.090;18.348;2022-08-19T03:19:38;23.50;77.40
65582;DHT22;52231;40.090;18.348;2022-08-19T03:22:06;23.60;77.20
65582;DHT22;52231;40.090;18.348;2022-08-19T03:24:40;23.50;77.30
65582;DHT22;52231;40.090;18.348;2022-08-19T03:27:08;23.50;77.30
65582;DHT22;52231;40.090;18.348;2022-08-19T03:29:37;23.40;77.20
65582;DHT22;52231;40.090;18.348;2022-08-19T03:32:07;23.40;76.70
65582;DHT22;52231;40.090;18.348;2022-08-19T03:34:37;23.40;76.50
65582;DHT22;52231;40.090;18.348;2022-08-19T03:37:10;23.30;76.20
65582;DHT22;52231;40.090;18.348;2022-08-19T03:39:40;23.30;75.50
65582;DHT22;52231;40.090;18.348;2022-08-19T03:42:08;23.30;75.30
65582;DHT22;52231;40.090;18.348;2022-08-19T03:44:37;23.30;75.20
65582;DHT22;52231;40.090;18.348;2022-08-19T03:47:06;23.40;75.20
65582;DHT22;52231;40.090;18.348;2022-08-19T03:49:34;23.40;75.20
65582;DHT22;52231;40.090;18.348;2022-08-19T03:52:04;23.40;75.30
65582;DHT22;52231;40.090;18.348;2022-08-19T03:54:35;23.40;75.50
65582;DHT22;52231;40.090;18.348;2022-08-19T03:57:04;23.40;75.50
65582;DHT22;52231;40.090;18.348;2022-08-19T03:59:34;23.50;75.70
65582;DHT22;52231;40.090;18.348;2022-08-19T04:02:07;23.50;75.80
65582;DHT22;52231;40.090;18.348;2022-08-19T04:04:55;23.60;75.80
65582;DHT22;52231;40.090;18.348;2022-08-19T04:07:23;23.60;75.80
65582;DHT22;52231;40.090;18.348;2022-08-19T04:09:51;23.70;75.80
65582;DHT22;52231;40.090;18.348;2022-08-19T04:12:19;23.80;75.80
65582;DHT22;52231;40.090;18.348;2022-08-19T04:14:48;23.80;75.80
65582;DHT22;52231;40.090;18.348;2022-08-19T04:17:16;23.90;75.80
65582;DHT22;52231;40.090;18.348;2022-08-19T04:19:44;23.90;75.80
65582;DHT22;52231;40.090;18.348;2022-08-19T04:22:12;24.00;75.70
65582;DHT22;52231;40.090;18.348;2022-08-19T04:24:41;24.00;75.70
65582;DHT22;52231;40.090;18.348;2022-08-19T04:27:09;24.10;75.70
65582;DHT22;52231;40.090;18.348;2022-08-19T04:29:37;24.10;75.90
65582;DHT22;52231;40.090;18.348;2022-08-19T04:32:27;24.10;76.00
65582;DHT22;52231;40.090;18.348;2022-08-19T04:34:55;24.20;76.30
65582;DHT22;52231;40.090;18.348;2022-08-19T04:37:26;24.20;76.90
65582;DHT22;52231;40.090;18.348;2022-08-19T04:39:55;24.30;77.60
65582;DHT22;52231;40.090;18.348;2022-08-19T04:42:42;24.40;77.60
65582;DHT22;52231;40.090;18.348;2022-08-19T04:45:13;24.50;78.00
65582;DHT22;52231;40.090;18.348;2022-08-19T04:47:43;24.70;78.10
65582;DHT22;52231;40.090;18.348;2022-08-19T04:50:12;24.80;78.50
65582;DHT22;52231;40.090;18.348;2022-08-19T04:52:41;25.00;79.30
65582;DHT22;52231;40.090;18.348;2022-08-19T04:55:12;25.10;79.70
65582;DHT22;52231;40.090;18.348;2022-08-19T04:57:41;25.30;80.10
65582;DHT22;52231;40.090;18.348;2022-08-19T05:00:11;25.50;80.20
65582;DHT22;52231;40.090;18.348;2022-08-19T05:02:39;25.70;80.30
65582;DHT22;52231;40.090;18.348;2022-08-19T05:05:08;25.90;80.50
65582;DHT22;52231;40.090;18.348;2022-08-19T05:07:36;26.00;80.70
65582;DHT22;52231;40.090;18.348;2022-08-19T05:10:05;26.20;80.60
65582;DHT22;52231;40.090;18.348;2022-08-19T05:12:34;26.30;80.30
65582;DHT22;52231;40.090;18.348;2022-08-19T05:15:05;26.60;79.80
65582;DHT22;52231;40.090;18.348;2022-08-19T05:17:34;26.90;79.00
65582;DHT22;52231;40.090;18.348;2022-08-19T05:20:06;27.20;78.10
65582;DHT22;52231;40.090;18.348;2022-08-19T05:22:53;27.40;77.50
65582;DHT22;52231;40.090;18.348;2022-08-19T05:25:22;27.60;76.90
65582;DHT22;52231;40.090;18.348;2022-08-19T05:27:52;27.80;76.40
65582;DHT22;52231;40.090;18.348;2022-08-19T05:30:20;27.90;76.10
65582;DHT22;52231;40.090;18.348;2022-08-19T05:32:48;27.90;76.00
65582;DHT22;52231;40.090;18.348;2022-08-19T05:35:16;27.90;76.30
65582;DHT22;52231;40.090;18.348;2022-08-19T05:37:48;28.00;76.50
65582;DHT22;52231;40.090;18.348;2022-08-19T05:40:16;28.10;76.60
65582;DHT22;52231;40.090;18.348;2022-08-19T05:42:44;28.30;76.70
65582;DHT22;52231;40.090;18.348;2022-08-19T05:45:13;28.40;76.70
65582;DHT22;52231;40.090;18.348;2022-08-19T05:47:42;28.60;76.30
65582;DHT22;52231;40.090;18.348;2022-08-19T05:50:10;28.80;76.30
65582;DHT22;52231;40.090;18.348;2022-08-19T05:52:39;28.80;76.50
65582;DHT22;52231;40.090;18.348;2022-08-19T05:55:07;28.90;76.90
65582;DHT22;52231;40.090;18.348;2022-08-19T05:57:36;29.00;76.60
65582;DHT22;52231;40.090;18.348;2022-08-19T06:00:05;29.30;76.30
65582;DHT22;52231;40.090;18.348;2022-08-19T06:02:40;29.60;75.30
65582;DHT22;52231;40.090;18.348;2022-08-19T06:05:08;29.80;75.10
65582;DHT22;52231;40.090;18.348;2022-08-19T06:07:38;30.10;74.10
65582;DHT22;52231;40.090;18.348;2022-08-19T06:10:12;30.40;73.20
65582;DHT22;52231;40.090;18.348;2022-08-19T06:12:41;30.80;71.80
65582;DHT22;52231;40.090;18.348;2022-08-19T06:15:11;31.10;70.70
65582;DHT22;52231;40.090;18.348;2022-08-19T06:17:41;31.40;69.80
65582;DHT22;52231;40.090;18.348;2022-08-19T06:20:14;31.60;68.30
65582;DHT22;52231;40.090;18.348;2022-08-19T06:22:46;31.80;67.50
65582;DHT22;52231;40.090;18.348;2022-08-19T06:25:15;31.70;66.10
65582;DHT22;52231;40.090;18.348;2022-08-19T06:27:43;31.60;65.80
65582;DHT22;52231;40.090;18.348;2022-08-19T06:30:20;31.60;64.10
65582;DHT22;52231;40.090;18.348;2022-08-19T06:32:48;31.60;64.20
65582;DHT22;52231;40.090;18.348;2022-08-19T06:35:17;31.90;63.40
65582;DHT22;52231;40.090;18.348;2022-08-19T06:37:45;32.20;61.80
65582;DHT22;52231;40.090;18.348;2022-08-19T06:40:13;32.20;61.40
65582;DHT22;52231;40.090;18.348;2022-08-19T06:42:41;32.20;60.00
65582;DHT22;52231;40.090;18.348;2022-08-19T06:45:10;32.10;60.30
65582;DHT22;52231;40.090;18.348;2022-08-19T06:47:38;32.10;59.80
65582;DHT22;52231;40.090;18.348;2022-08-19T06:50:07;32.30;59.60
65582;DHT22;52231;40.090;18.348;2022-08-19T06:52:35;32.50;59.00
65582;DHT22;52231;40.090;18.348;2022-08-19T06:55:04;32.80;59.10
65582;DHT22;52231;40.090;18.348;2022-08-19T06:57:34;32.90;57.80
65582;DHT22;52231;40.090;18.348;2022-08-19T07:00:05;33.00;57.40
65582;DHT22;52231;40.090;18.348;2022-08-19T07:02:40;33.00;56.70
65582;DHT22;52231;40.090;18.348;2022-08-19T07:05:10;33.20;57.20
65582;DHT22;52231;40.090;18.348;2022-08-19T07:07:38;33.30;56.60
65582;DHT22;52231;40.090;18.348;2022-08-19T07:10:07;33.30;55.20
65582;DHT22;52231;40.090;18.348;2022-08-19T07:12:35;33.40;54.70
65582;DHT22;52231;40.090;18.348;2022-08-19T07:15:05;33.40;54.50
65582;DHT22;52231;40.090;18.348;2022-08-19T07:17:33;33.70;54.00
65582;DHT22;52231;40.090;18.348;2022-08-19T07:20:06;34.20;52.80
65582;DHT22;52231;40.090;18.348;2022-08-19T07:22:36;34.30;49.90
65582;DHT22;52231;40.090;18.348;2022-08-19T07:25:07;34.20;49.80
65582;DHT22;52231;40.090;18.348;2022-08-19T07:27:53;34.30;49.90
65582;DHT22;52231;40.090;18.348;2022-08-19T07:30:22;34.40;48.00
65582;DHT22;52231;40.090;18.348;2022-08-19T07:33:10;34.80;48.50
65582;DHT22;52231;40.090;18.348;2022-08-19T07:35:38;35.30;47.10
65582;DHT22;52231;40.090;18.348;2022-08-19T07:38:06;35.40;47.10
65582;DHT22;52231;40.090;18.348;2022-08-19T07:40:35;35.80;45.60
65582;DHT22;52231;40.090;18.348;2022-08-19T07:43:03;36.00;44.40
65582;DHT22;52231;40.090;18.348;2022-08-19T07:45:31;36.20;43.40
65582;DHT22;52231;40.090;18.348;2022-08-19T07:48:00;36.30;44.20
65582;DHT22;52231;40.090;18.348;2022-08-19T07:50:28;36.60;43.10
65582;DHT22;52231;40.090;18.348;2022-08-19T07:52:58;36.50;41.40
65582;DHT22;52231;40.090;18.348;2022-08-19T07:55:26;36.70;41.80
65582;DHT22;52231;40.090;18.348;2022-08-19T07:57:54;37.10;41.20
65582;DHT22;52231;40.090;18.348;2022-08-19T08:00:23;36.90;38.10
65582;DHT22;52231;40.090;18.348;2022-08-19T08:02:52;36.90;38.40
65582;DHT22;52231;40.090;18.348;2022-08-19T08:05:20;36.80;38.30
65582;DHT22;52231;40.090;18.348;2022-08-19T08:08:10;36.90;38.70
65582;DHT22;52231;40.090;18.348;2022-08-19T08:11:10;37.30;38.20
65582;DHT22;52231;40.090;18.348;2022-08-19T08:13:38;37.50;38.40
65582;DHT22;52231;40.090;18.348;2022-08-19T08:16:09;37.80;39.40
65582;DHT22;52231;40.090;18.348;2022-08-19T08:18:37;37.80;39.60
65582;DHT22;52231;40.090;18.348;2022-08-19T08:21:09;38.00;38.40
65582;DHT22;52231;40.090;18.348;2022-08-19T08:23:37;38.10;37.50
65582;DHT22;52231;40.090;18.348;2022-08-19T08:26:05;38.20;37.30
65582;DHT22;52231;40.090;18.348;2022-08-19T08:28:33;38.40;37.30
65582;DHT22;52231;40.090;18.348;2022-08-19T08:31:01;38.40;36.70
65582;DHT22;52231;40.090;18.348;2022-08-19T08:33:29;38.60;37.20
65582;DHT22;52231;40.090;18.348;2022-08-19T08:35:57;38.90;36.50
65582;DHT22;52231;40.090;18.348;2022-08-19T08:38:26;38.80;35.00
65582;DHT22;52231;40.090;18.348;2022-08-19T08:40:58;38.40;33.60
65582;DHT22;52231;40.090;18.348;2022-08-19T08:43:38;38.30;33.60
65582;DHT22;52231;40.090;18.348;2022-08-19T08:46:15;38.60;33.60
65582;DHT22;52231;40.090;18.348;2022-08-19T08:51:41;39.10;33.60
65582;DHT22;52231;40.090;18.348;2022-08-19T08:54:19;39.20;32.40
65582;DHT22;52231;40.090;18.348;2022-08-19T08:56:49;39.10;32.50
65582;DHT22;52231;40.090;18.348;2022-08-19T08:59:23;39.40;32.80
65582;DHT22;52231;40.090;18.348;2022-08-19T09:01:52;39.30;33.60
65582;DHT22;52231;40.090;18.348;2022-08-19T09:04:21;39.40;35.90
65582;DHT22;52231;40.090;18.348;2022-08-19T09:10:04;39.30;38.20
65582;DHT22;52231;40.090;18.348;2022-08-19T09:12:51;39.10;38.00
65582;DHT22;52231;40.090;18.348;2022-08-19T09:15:37;38.90;38.90
65582;DHT22;52231;40.090;18.348;2022-08-19T09:18:08;38.90;38.90
65582;DHT22;52231;40.090;18.348;2022-08-19T09:20:37;39.00;39.30
65582;DHT22;52231;40.090;18.348;2022-08-19T09:23:05;38.80;38.50
65582;DHT22;52231;40.090;18.348;2022-08-19T09:25:34;38.80;40.90
65582;DHT22;52231;40.090;18.348;2022-08-19T09:28:02;38.80;40.40
65582;DHT22;52231;40.090;18.348;2022-08-19T09:30:34;39.00;41.50
65582;DHT22;52231;40.090;18.348;2022-08-19T09:33:07;38.70;41.60
65582;DHT22;52231;40.090;18.348;2022-08-19T09:35:36;38.80;41.00
65582;DHT22;52231;40.090;18.348;2022-08-19T09:38:04;39.00;40.70
65582;DHT22;52231;40.090;18.348;2022-08-19T09:40:32;39.00;40.40
65582;DHT22;52231;40.090;18.348;2022-08-19T09:43:03;39.00;41.10
65582;DHT22;52231;40.090;18.348;2022-08-19T09:45:32;38.90;41.70
65582;DHT22;52231;40.090;18.348;2022-08-19T09:48:01;38.90;42.80
65582;DHT22;52231;40.090;18.348;2022-08-19T09:50:30;39.30;42.70
65582;DHT22;52231;40.090;18.348;2022-08-19T09:53:03;39.80;41.60
65582;DHT22;52231;40.090;18.348;2022-08-19T09:55:33;39.80;40.50
65582;DHT22;52231;40.090;18.348;2022-08-19T09:58:02;39.80;41.10
65582;DHT22;52231;40.090;18.348;2022-08-19T10:00:30;40.20;40.50
65582;DHT22;52231;40.090;18.348;2022-08-19T10:02:59;40.30;40.60
65582;DHT22;52231;40.090;18.348;2022-08-19T10:05:27;40.40;41.40
65582;DHT22;52231;40.090;18.348;2022-08-19T10:08:22;40.20;42.70
65582;DHT22;52231;40.090;18.348;2022-08-19T10:10:51;40.20;42.80
65582;DHT22;52231;40.090;18.348;2022-08-19T10:13:21;40.70;40.60
65582;DHT22;52231;40.090;18.348;2022-08-19T10:15:53;40.80;40.10
65582;DHT22;52231;40.090;18.348;2022-08-19T10:18:24;41.10;39.40
65582;DHT22;52231;40.090;18.348;2022-08-19T10:21:12;41.30;38.10
65582;DHT22;52231;40.090;18.348;2022-08-19T10:23:44;41.30;37.90
65582;DHT22;52231;40.090;18.348;2022-08-19T10:26:16;41.40;37.70
65582;DHT22;52231;40.090;18.348;2022-08-19T10:28:44;41.40;37.80
65582;DHT22;52231;40.090;18.348;2022-08-19T10:31:15;41.40;37.90
65582;DHT22;52231;40.090;18.348;2022-08-19T10:33:51;41.70;36.70
65582;DHT22;52231;40.090;18.348;2022-08-19T10:36:28;42.00;36.40
65582;DHT22;52231;40.090;18.348;2022-08-19T10:38:58;42.30;36.10
65582;DHT22;52231;40.090;18.348;2022-08-19T10:41:32;42.30;36.40
65582;DHT22;52231;40.090;18.348;2022-08-19T10:44:19;42.30;35.70
65582;DHT22;52231;40.090;18.348;2022-08-19T10:46:49;42.00;35.30
65582;DHT22;52231;40.090;18.348;2022-08-19T10:49:18;42.20;35.50
65582;DHT22;52231;40.090;18.348;2022-08-19T10:51:47;42.30;34.60
65582;DHT22;52231;40.090;18.348;2022-08-19T10:54:34;42.60;33.90
65582;DHT22;52231;40.090;18.348;2022-08-19T10:57:21;41.70;35.10
65582;DHT22;52231;40.090;18.348;2022-08-19T10:59:52;42.10;34.80
65582;DHT22;52231;40.090;18.348;2022-08-19T11:02:21;42.20;34.10
65582;DHT22;52231;40.090;18.348;2022-08-19T11:04:49;42.40;33.50
65582;DHT22;52231;40.090;18.348;2022-08-19T11:07:19;42.60;32.70
65582;DHT22;52231;40.090;18.348;2022-08-19T11:09:48;42.40;32.80
65582;DHT22;52231;40.090;18.348;2022-08-19T11:12:17;42.70;32.00
65582;DHT22;52231;40.090;18.348;2022-08-19T11:14:45;42.60;32.50
65582;DHT22;52231;40.090;18.348;2022-08-19T11:17:13;42.50;32.40
65582;DHT22;52231;40.090;18.348;2022-08-19T11:19:42;42.90;31.90
65582;DHT22;52231;40.090;18.348;2022-08-19T11:22:10;42.80;30.80
65582;DHT22;52231;40.090;18.348;2022-08-19T11:24:39;43.00;30.70
65582;DHT22;52231;40.090;18.348;2022-08-19T11:27:09;43.30;30.30
65582;DHT22;52231;40.090;18.348;2022-08-19T11:29:40;43.80;29.80
65582;DHT22;52231;40.090;18.348;2022-08-19T11:32:09;44.20;29.50
65582;DHT22;52231;40.090;18.348;2022-08-19T11:34:38;44.40;28.20
65582;DHT22;52231;40.090;18.348;2022-08-19T11:37:07;44.20;27.10
65582;DHT22;52231;40.090;18.348;2022-08-19T11:39:37;44.10;27.00
65582;DHT22;52231;40.090;18.348;2022-08-19T11:42:06;44.30;27.80
65582;DHT22;52231;40.090;18.348;2022-08-19T11:44:55;44.30;27.10
65582;DHT22;52231;40.090;18.348;2022-08-19T11:47:23;44.30;31.30
65582;DHT22;52231;40.090;18.348;2022-08-19T11:49:51;43.20;34.80
65582;DHT22;52231;40.090;18.348;2022-08-19T11:52:20;42.40;37.10
65582;DHT22;52231;40.090;18.348;2022-08-19T11:54:49;41.70;38.90
65582;DHT22;52231;40.090;18.348;2022-08-19T11:57:17;41.40;38.90
65582;DHT22;52231;40.090;18.348;2022-08-19T11:59:49;40.90;39.60
65582;DHT22;52231;40.090;18.348;2022-08-19T12:02:19;40.40;39.30
65582;DHT22;52231;40.090;18.348;2022-08-19T12:04:47;40.10;42.50
65582;DHT22;52231;40.090;18.348;2022-08-19T12:07:16;39.90;42.20
65582;DHT22;52231;40.090;18.348;2022-08-19T12:09:45;40.00;41.70
65582;DHT22;52231;40.090;18.348;2022-08-19T12:12:14;39.60;43.40
65582;DHT22;52231;40.090;18.348;2022-08-19T12:14:42;39.20;43.40
65582;DHT22;52231;40.090;18.348;2022-08-19T12:17:12;38.90;45.10
65582;DHT22;52231;40.090;18.348;2022-08-19T12:19:42;38.60;46.10
65582;DHT22;52231;40.090;18.348;2022-08-19T12:22:11;38.20;46.80
65582;DHT22;52231;40.090;18.348;2022-08-19T12:24:59;38.60;41.70
65582;DHT22;52231;40.090;18.348;2022-08-19T12:27:29;39.40;38.40
65582;DHT22;52231;40.090;18.348;2022-08-19T12:29:57;40.00;38.00
65582;DHT22;52231;40.090;18.348;2022-08-19T12:32:34;40.30;36.90
65582;DHT22;52231;40.090;18.348;2022-08-19T12:35:03;40.40;35.80
65582;DHT22;52231;40.090;18.348;2022-08-19T12:37:32;40.50;36.20
65582;DHT22;52231;40.090;18.348;2022-08-19T12:40:02;40.40;37.30
65582;DHT22;52231;40.090;18.348;2022-08-19T12:42:31;40.20;37.80
65582;DHT22;52231;40.090;18.348;2022-08-19T12:44:59;40.20;38.00
65582;DHT22;52231;40.090;18.348;2022-08-19T12:47:27;40.10;37.80
65582;DHT22;52231;40.090;18.348;2022-08-19T12:49:56;39.80;38.40
65582;DHT22;52231;40.090;18.348;2022-08-19T12:52:26;39.60;37.80
65582;DHT22;52231;40.090;18.348;2022-08-19T12:54:57;39.50;37.60
65582;DHT22;52231;40.090;18.348;2022-08-19T12:57:27;39.50;37.30
65582;DHT22;52231;40.090;18.348;2022-08-19T12:59:56;39.40;37.10
65582;DHT22;52231;40.090;18.348;2022-08-19T13:02:25;39.40;37.80
65582;DHT22;52231;40.090;18.348;2022-08-19T13:04:54;39.70;36.90
65582;DHT22;52231;40.090;18.348;2022-08-19T13:07:22;39.60;35.90
65582;DHT22;52231;40.090;18.348;2022-08-19T13:09:52;39.60;36.70
65582;DHT22;52231;40.090;18.348;2022-08-19T13:12:20;39.40;35.30
65582;DHT22;52231;40.090;18.348;2022-08-19T13:14:48;39.00;36.90
65582;DHT22;52231;40.090;18.348;2022-08-19T13:17:19;38.80;37.10
65582;DHT22;52231;40.090;18.348;2022-08-19T13:19:48;38.90;37.80
65582;DHT22;52231;40.090;18.348;2022-08-19T13:22:17;38.30;46.70
65582;DHT22;52231;40.090;18.348;2022-08-19T13:24:45;37.70;49.10
65582;DHT22;52231;40.090;18.348;2022-08-19T13:27:15;37.20;51.60
65582;DHT22;52231;40.090;18.348;2022-08-19T13:29:44;36.90;52.30
65582;DHT22;52231;40.090;18.348;2022-08-19T13:32:30;36.80;52.50
65582;DHT22;52231;40.090;18.348;2022-08-19T13:35:17;36.10;53.60
65582;DHT22;52231;40.090;18.348;2022-08-19T13:37:46;36.00;54.20
65582;DHT22;52231;40.090;18.348;2022-08-19T13:40:18;35.80;55.00
65582;DHT22;52231;40.090;18.348;2022-08-19T13:42:48;35.50;56.10
65582;DHT22;52231;40.090;18.348;2022-08-19T13:45:20;35.40;57.30
65582;DHT22;52231;40.090;18.348;2022-08-19T13:47:50;35.10;58.30
65582;DHT22;52231;40.090;18.348;2022-08-19T13:50:27;35.00;58.90
65582;DHT22;52231;40.090;18.348;2022-08-19T13:52:56;34.70;60.20
65582;DHT22;52231;40.090;18.348;2022-08-19T13:55:25;34.30;61.70
65582;DHT22;52231;40.090;18.348;2022-08-19T13:57:55;34.00;62.40
65582;DHT22;52231;40.090;18.348;2022-08-19T14:00:25;33.80;63.70
65582;DHT22;52231;40.090;18.348;2022-08-19T14:02:55;33.80;64.10
65582;DHT22;52231;40.090;18.348;2022-08-19T14:05:26;33.70;64.20
65582;DHT22;52231;40.090;18.348;2022-08-19T14:07:55;33.70;64.70
65582;DHT22;52231;40.090;18.348;2022-08-19T14:10:24;33.40;65.40
65582;DHT22;52231;40.090;18.348;2022-08-19T14:12:55;33.10;66.40
65582;DHT22;52231;40.090;18.348;2022-08-19T14:15:25;32.80;67.20
65582;DHT22;52231;40.090;18.348;2022-08-19T14:17:54;32.70;67.80
65582;DHT22;52231;40.090;18.348;2022-08-19T14:20:23;32.80;67.50
65582;DHT22;52231;40.090;18.348;2022-08-19T14:22:52;32.80;67.80
65582;DHT22;52231;40.090;18.348;2022-08-19T14:25:24;32.80;68.20
65582;DHT22;52231;40.090;18.348;2022-08-19T14:27:52;32.80;68.40
65582;DHT22;52231;40.090;18.348;2022-08-19T14:30:28;32.80;68.60
65582;DHT22;52231;40.090;18.348;2022-08-19T14:32:58;32.70;68.80
65582;DHT22;52231;40.090;18.348;2022-08-19T14:35:28;32.60;69.10
65582;DHT22;52231;40.090;18.348;2022-08-19T14:37:57;32.60;69.40
65582;DHT22;52231;40.090;18.348;2022-08-19T14:40:28;32.60;69.30
65582;DHT22;52231;40.090;18.348;2022-08-19T14:43:02;32.40;70.20
65582;DHT22;52231;40.090;18.348;2022-08-19T14:45:35;32.20;71.10
65582;DHT22;52231;40.090;18.348;2022-08-19T14:48:05;31.90;71.90
65582;DHT22;52231;40.090;18.348;2022-08-19T14:50:37;31.70;72.40
65582;DHT22;52231;40.090;18.348;2022-08-19T14:53:09;31.60;72.90
65582;DHT22;52231;40.090;18.348;2022-08-19T14:55:41;31.20;73.90
65582;DHT22;52231;40.090;18.348;2022-08-19T14:58:09;31.10;74.40
65582;DHT22;52231;40.090;18.348;2022-08-19T15:00:38;31.00;74.60
65582;DHT22;52231;40.090;18.348;2022-08-19T15:03:06;30.90;75.10
65582;DHT22;52231;40.090;18.348;2022-08-19T15:05:34;30.80;75.40
65582;DHT22;52231;40.090;18.348;2022-08-19T15:08:04;30.80;75.70
65582;DHT22;52231;40.090;18.348;2022-08-19T15:10:35;30.50;76.60
65582;DHT22;52231;40.090;18.348;2022-08-19T15:13:04;30.60;76.60
65582;DHT22;52231;40.090;18.348;2022-08-19T15:15:32;30.60;76.50
65582;DHT22;52231;40.090;18.348;2022-08-19T15:18:01;30.40;76.80
65582;DHT22;52231;40.090;18.348;2022-08-19T15:20:30;30.30;77.00
65582;DHT22;52231;40.090;18.348;2022-08-19T15:22:59;30.40;76.90
65582;DHT22;52231;40.090;18.348;2022-08-19T15:25:28;30.30;77.20
65582;DHT22;52231;40.090;18.348;2022-08-19T15:27:56;30.30;77.80
65582;DHT22;52231;40.090;18.348;2022-08-19T15:30:26;30.10;78.20
65582;DHT22;52231;40.090;18.348;2022-08-19T15:32:58;30.00;78.40
65582;DHT22;52231;40.090;18.348;2022-08-19T15:35:27;29.90;78.80
65582;DHT22;52231;40.090;18.348;2022-08-19T15:37:56;29.90;79.20
65582;DHT22;52231;40.090;18.348;2022-08-19T15:40:26;29.90;79.30
65582;DHT22;52231;40.090;18.348;2022-08-19T15:42:55;30.00;79.10
65582;DHT22;52231;40.090;18.348;2022-08-19T15:45:24;29.90;78.80